createdAt,value
2018-10-16T00:00:14.945Z,99.90
2018-10-16T00:04:19.812Z,99.90
2018-10-16T00:08:24.591Z,99.90
2018-10-16T00:12:29.382Z,99.90
2018-10-16T00:16:34.176Z,99.90
2018-10-16T00:20:39.856Z,99.90
2018-10-16T00:24:44.527Z,99.90
2018-10-16T00:28:49.367Z,99.90
2018-10-16T00:32:55.392Z,99.90
2018-10-16T00:37:00.086Z,99.90
2018-10-16T00:41:05.148Z,99.90
2018-10-16T00:45:10.987Z,99.90
2018-10-16T00:49:15.720Z,99.90
2018-10-16T00:53:20.634Z,99.90
2018-10-16T00:57:26.176Z,99.90
2018-10-16T01:01:32.887Z,99.90
2018-10-16T01:05:37.561Z,99.90
2018-10-16T01:09:42.339Z,99.90
2018-10-16T01:13:47.003Z,99.90
2018-10-16T01:17:52.007Z,99.90
2018-10-16T01:21:56.832Z,99.90
2018-10-16T01:26:01.491Z,99.90
2018-10-16T01:30:06.294Z,99.90
2018-10-16T01:34:11.130Z,99.90
2018-10-16T01:38:15.923Z,99.90
2018-10-16T01:42:23.214Z,99.90
2018-10-16T01:46:27.974Z,99.90
2018-10-16T01:50:32.946Z,99.90
2018-10-16T01:54:37.639Z,99.90
2018-10-16T01:58:42.374Z,99.90
2018-10-16T02:02:47.147Z,99.90
2018-10-16T02:06:52.426Z,99.90
2018-10-16T02:10:57.448Z,99.90
2018-10-16T02:15:02.137Z,99.90
2018-10-16T02:19:07.340Z,99.90
2018-10-16T02:23:12.214Z,99.90
2018-10-16T02:27:16.949Z,99.90
2018-10-16T02:31:22.002Z,99.90
2018-10-16T02:35:27.150Z,99.90
2018-10-16T02:39:31.847Z,99.90
2018-10-16T02:43:36.509Z,99.90
2018-10-16T02:47:41.202Z,99.90
2018-10-16T02:51:45.868Z,99.90
2018-10-16T02:55:52.180Z,99.90
2018-10-16T02:59:57.334Z,99.90
2018-10-16T03:04:02.067Z,99.90
2018-10-16T03:08:06.905Z,99.90
2018-10-16T03:12:11.727Z,99.90
2018-10-16T03:16:16.740Z,99.90
2018-10-16T03:20:21.583Z,99.90
2018-10-16T03:24:26.329Z,99.90
2018-10-16T03:28:31.235Z,99.90
2018-10-16T03:32:35.951Z,99.90
2018-10-16T03:36:40.946Z,99.90
2018-10-16T03:40:45.811Z,99.90
2018-10-16T03:44:51.673Z,99.90
2018-10-16T03:48:56.573Z,99.90
2018-10-16T03:53:01.487Z,99.90
2018-10-16T03:57:06.285Z,99.90
2018-10-16T04:01:11.079Z,99.90
2018-10-16T04:05:15.738Z,99.90
2018-10-16T04:09:21.638Z,99.90
2018-10-16T04:13:26.422Z,99.90
2018-10-16T04:17:31.166Z,99.90
2018-10-16T04:21:42.095Z,99.90
2018-10-16T04:25:46.822Z,99.90
2018-10-16T04:29:53.077Z,99.90
2018-10-16T04:33:58.181Z,99.90
2018-10-16T04:38:02.859Z,99.90
2018-10-16T04:42:07.532Z,99.90
2018-10-16T04:46:12.276Z,99.90
2018-10-16T04:50:16.980Z,99.90
2018-10-16T04:54:21.924Z,99.90
2018-10-16T04:58:26.875Z,99.90
2018-10-16T05:02:31.611Z,99.90
2018-10-16T05:06:36.400Z,99.90
2018-10-16T05:10:41.240Z,99.90
2018-10-16T05:14:45.938Z,99.90
2018-10-16T05:18:52.137Z,99.90
2018-10-16T05:22:58.141Z,99.90
2018-10-16T05:27:02.966Z,99.90
2018-10-16T05:31:07.779Z,99.90
2018-10-16T05:35:12.626Z,99.90
2018-10-16T05:39:17.363Z,99.90
2018-10-16T05:43:23.138Z,99.90
2018-10-16T05:47:27.928Z,99.90
2018-10-16T05:51:32.739Z,99.90
2018-10-16T05:55:37.422Z,99.90
2018-10-16T05:59:42.109Z,99.90
2018-10-16T06:03:46.747Z,99.90
2018-10-16T06:07:53.780Z,99.90
2018-10-16T06:11:58.906Z,99.90
2018-10-16T06:16:03.625Z,99.90
2018-10-16T06:20:10.820Z,99.90
2018-10-16T06:24:15.582Z,99.90
2018-10-16T06:28:22.251Z,99.90
2018-10-16T06:32:27.027Z,99.90
2018-10-16T06:36:31.928Z,99.90
2018-10-16T06:40:37.345Z,99.90
2018-10-16T06:44:42.158Z,99.90
2018-10-16T06:48:47.185Z,99.90
2018-10-16T06:52:52.048Z,99.90
2018-10-16T06:56:56.977Z,99.90
2018-10-16T07:01:01.704Z,99.90
2018-10-16T07:05:07.433Z,99.90
2018-10-16T07:09:12.276Z,99.90
2018-10-16T07:13:17.133Z,99.90
2018-10-16T07:17:22.191Z,99.90
2018-10-16T07:21:27.273Z,99.90
2018-10-16T07:25:32.095Z,99.90
2018-10-16T07:29:36.961Z,99.90
2018-10-16T07:33:41.630Z,99.80
2018-10-16T07:37:46.342Z,98.30
2018-10-16T07:41:52.436Z,97.60
2018-10-16T07:45:57.268Z,96.40
2018-10-16T07:50:02.083Z,95.50
2018-10-16T07:54:07.125Z,95.00
2018-10-16T07:58:11.989Z,94.50
2018-10-16T08:02:16.892Z,94.00
2018-10-16T08:06:21.874Z,94.00
2018-10-16T08:10:26.677Z,94.00
2018-10-16T08:14:32.571Z,93.80
2018-10-16T08:18:37.595Z,93.50
2018-10-16T08:22:42.267Z,93.30
2018-10-16T08:26:46.924Z,92.80
2018-10-16T08:30:51.778Z,92.60
2018-10-16T08:34:57.274Z,91.50
2018-10-16T08:39:08.532Z,91.20
2018-10-16T08:43:29.962Z,90.60
2018-10-16T08:47:46.311Z,89.30
2018-10-16T08:51:53.442Z,88.00
2018-10-16T08:55:58.756Z,88.80
2018-10-16T09:00:03.749Z,86.70
2018-10-16T09:04:08.739Z,85.90
2018-10-16T09:08:13.379Z,86.00
2018-10-16T09:12:18.085Z,87.30
2018-10-16T09:16:23.850Z,89.00
2018-10-16T09:20:28.572Z,89.40
2018-10-16T09:24:33.523Z,89.90
2018-10-16T09:28:38.227Z,90.00
2018-10-16T09:32:42.886Z,88.30
2018-10-16T09:36:47.650Z,85.50
2018-10-16T09:40:52.419Z,83.60
2018-10-16T09:44:57.138Z,82.10
2018-10-16T09:49:01.820Z,80.20
2018-10-16T09:53:07.053Z,76.10
2018-10-16T09:57:11.782Z,74.90
2018-10-16T10:01:22.275Z,72.80
2018-10-16T10:05:27.456Z,72.00
2018-10-16T10:09:32.170Z,69.00
2018-10-16T10:13:36.990Z,71.70
2018-10-16T10:17:41.751Z,75.00
2018-10-16T10:21:46.437Z,78.00
2018-10-16T10:25:51.617Z,78.30
2018-10-16T10:29:56.793Z,80.00
2018-10-16T10:34:01.519Z,80.30
2018-10-16T10:38:06.184Z,81.10
2018-10-16T10:42:10.897Z,82.20
2018-10-16T10:46:15.735Z,81.70
2018-10-16T10:50:22.213Z,82.10
2018-10-16T10:54:26.934Z,82.60
2018-10-16T10:58:31.760Z,83.10
2018-10-16T11:02:36.778Z,82.80
2018-10-16T11:06:41.458Z,83.50
2018-10-16T11:10:46.131Z,83.30
2018-10-16T11:14:51.011Z,82.40
2018-10-16T11:18:57.147Z,82.40
2018-10-16T11:23:01.799Z,83.30
2018-10-16T11:27:06.485Z,83.80
2018-10-16T11:31:11.454Z,84.10
2018-10-16T11:35:16.222Z,84.20
2018-10-16T11:39:21.622Z,83.70
2018-10-16T11:43:26.486Z,84.20
2018-10-16T11:47:31.357Z,84.70
2018-10-16T11:51:36.540Z,84.00
2018-10-16T11:55:41.222Z,84.10
2018-10-16T11:59:46.266Z,84.40
2018-10-16T12:03:51.229Z,83.70
2018-10-16T12:07:56.122Z,83.60
2018-10-16T12:12:00.933Z,84.20
2018-10-16T12:16:05.572Z,84.20
2018-10-16T12:20:17.903Z,82.80
2018-10-16T12:24:23.026Z,82.30
2018-10-16T12:28:28.223Z,81.50
2018-10-16T12:32:33.067Z,82.00
2018-10-16T12:36:37.759Z,80.40
2018-10-16T12:40:42.488Z,80.10
2018-10-16T12:44:47.184Z,79.60
2018-10-16T12:48:53.123Z,79.40
2018-10-16T12:52:58.042Z,78.70
2018-10-16T12:57:02.727Z,78.30
2018-10-16T13:01:07.363Z,79.00
2018-10-16T13:05:12.119Z,79.30
2018-10-16T13:09:16.798Z,79.40
2018-10-16T13:13:21.607Z,78.00
2018-10-16T13:17:26.734Z,77.20
2018-10-16T13:21:31.439Z,77.40
2018-10-16T13:25:36.230Z,77.20
2018-10-16T13:29:41.236Z,78.60
2018-10-16T13:33:45.891Z,79.10
2018-10-16T13:37:51.268Z,78.80
2018-10-16T13:41:56.049Z,79.30
2018-10-16T13:46:01.263Z,76.80
2018-10-16T13:50:09.754Z,77.10
2018-10-16T13:54:14.397Z,77.20
2018-10-16T13:58:20.398Z,76.70
2018-10-16T14:02:25.623Z,77.50
2018-10-16T14:06:30.272Z,77.70
2018-10-16T14:10:35.235Z,76.70
2018-10-16T14:14:39.903Z,77.70
2018-10-16T14:18:44.595Z,78.20
2018-10-16T14:22:49.364Z,79.20
2018-10-16T14:26:54.590Z,80.00
2018-10-16T14:31:00.274Z,80.10
2018-10-16T14:35:05.896Z,80.10
2018-10-16T14:39:11.909Z,79.90
2018-10-16T14:43:16.626Z,79.60
2018-10-16T14:47:21.361Z,79.50
2018-10-16T14:51:26.373Z,79.20
2018-10-16T14:55:31.250Z,78.90
2018-10-16T14:59:36.054Z,79.20
2018-10-16T15:03:40.749Z,78.40
2018-10-16T15:07:45.472Z,78.10
2018-10-16T15:11:50.212Z,79.20
2018-10-16T15:15:55.114Z,78.20
2018-10-16T15:20:00.270Z,78.40
2018-10-16T15:24:05.240Z,79.90
2018-10-16T15:28:11.487Z,79.10
2018-10-16T15:32:16.411Z,78.20
2018-10-16T15:36:21.131Z,79.00
2018-10-16T15:40:25.712Z,79.60
2018-10-16T15:44:30.445Z,79.60
2018-10-16T15:48:35.136Z,79.80
2018-10-16T15:52:40.280Z,79.80
2018-10-16T15:56:45.070Z,81.20
2018-10-16T16:00:49.788Z,80.60
2018-10-16T16:04:54.448Z,81.70
2018-10-16T16:08:59.085Z,82.80
2018-10-16T16:13:08.372Z,83.00
2018-10-16T16:17:13.587Z,83.00
2018-10-16T16:21:18.308Z,84.30
2018-10-16T16:25:22.961Z,85.20
2018-10-16T16:29:27.656Z,85.90
2018-10-16T16:33:32.355Z,86.00
2018-10-16T16:37:37.938Z,87.10
2018-10-16T16:41:43.198Z,86.30
2018-10-16T16:45:47.859Z,87.10
2018-10-16T16:49:53.595Z,88.10
2018-10-16T16:53:58.424Z,89.20
2018-10-16T16:58:08.291Z,89.20
2018-10-16T17:02:13.814Z,88.70
2018-10-16T17:06:18.561Z,90.30
2018-10-16T17:10:23.280Z,90.20
2018-10-16T17:14:28.380Z,91.20
2018-10-16T17:18:33.075Z,90.60
2018-10-16T17:22:38.024Z,91.20
2018-10-16T17:26:42.722Z,91.40
2018-10-16T17:30:47.412Z,91.00
2018-10-16T17:34:53.731Z,91.30
2018-10-16T17:38:58.432Z,91.50
2018-10-16T17:43:04.284Z,91.30
2018-10-16T17:47:09.293Z,90.90
2018-10-16T17:51:14.017Z,90.90
2018-10-16T17:55:18.647Z,90.90
2018-10-16T17:59:23.312Z,91.00
2018-10-16T18:03:28.014Z,91.80
2018-10-16T18:07:33.292Z,91.70
2018-10-16T18:11:38.272Z,91.40
2018-10-16T18:15:43.084Z,91.50
2018-10-16T18:19:47.792Z,91.90
2018-10-16T18:23:52.743Z,91.80
2018-10-16T18:27:57.486Z,92.00
2018-10-16T18:32:03.020Z,93.60
2018-10-16T18:36:08.012Z,93.00
2018-10-16T18:40:13.673Z,92.40
2018-10-16T18:44:18.476Z,92.50
2018-10-16T18:48:23.448Z,93.60
2018-10-16T18:52:28.271Z,93.60
2018-10-16T18:56:34.464Z,94.10
2018-10-16T19:00:39.654Z,94.60
2018-10-16T19:04:45.498Z,94.80
2018-10-16T19:08:50.884Z,95.10
2018-10-16T19:12:55.628Z,95.00
2018-10-16T19:17:01.220Z,95.10
2018-10-16T19:21:07.177Z,94.30
2018-10-16T19:25:13.329Z,93.90
2018-10-16T19:29:18.505Z,93.60
2018-10-16T19:33:23.375Z,93.40
2018-10-16T19:37:28.154Z,93.60
2018-10-16T19:41:34.174Z,93.40
2018-10-16T19:45:39.272Z,93.20
2018-10-16T19:49:44.050Z,93.20
2018-10-16T19:53:49.176Z,93.00
2018-10-16T19:57:53.938Z,92.80
2018-10-16T20:01:58.687Z,92.80
2018-10-16T20:06:03.350Z,92.80
2018-10-16T20:10:10.546Z,92.70
2018-10-16T20:14:15.316Z,92.60
2018-10-16T20:18:20.207Z,92.60
2018-10-16T20:22:24.904Z,92.60
2018-10-16T20:26:29.577Z,92.30
2018-10-16T20:30:36.186Z,92.30
2018-10-16T20:34:41.697Z,92.40
2018-10-16T20:38:46.468Z,92.40
2018-10-16T20:42:51.320Z,92.20
2018-10-16T20:46:55.974Z,92.20
2018-10-16T20:51:00.699Z,92.30
2018-10-16T20:55:06.335Z,92.40
2018-10-16T20:59:12.724Z,92.50
2018-10-16T21:03:17.484Z,92.40
2018-10-16T21:07:22.353Z,92.50
2018-10-16T21:11:27.183Z,92.40
2018-10-16T21:15:34.073Z,92.40
2018-10-16T21:19:39.008Z,92.30
2018-10-16T21:23:43.689Z,92.50
2018-10-16T21:27:48.812Z,92.20
2018-10-16T21:31:59.312Z,92.30
2018-10-16T21:36:05.477Z,92.20
2018-10-16T21:40:11.186Z,92.20
2018-10-16T21:44:23.761Z,92.30
2018-10-16T21:48:29.575Z,92.20
2018-10-16T21:52:38.119Z,92.40
2018-10-16T21:56:43.104Z,92.60
2018-10-16T22:00:53.417Z,92.20
2018-10-16T22:04:58.159Z,92.00
2018-10-16T22:09:05.058Z,91.80
2018-10-16T22:13:11.801Z,91.90
2018-10-16T22:17:16.699Z,92.10
2018-10-16T22:21:22.063Z,91.80
2018-10-16T22:25:26.807Z,91.90
2018-10-16T22:29:31.952Z,91.90
2018-10-16T22:33:37.032Z,92.00
2018-10-16T22:37:42.026Z,92.20
2018-10-16T22:41:48.677Z,91.90
2018-10-16T22:45:53.768Z,92.00
2018-10-16T22:49:59.731Z,92.10
2018-10-16T22:54:05.196Z,92.10
2018-10-16T22:58:12.054Z,92.10
2018-10-16T23:02:16.702Z,92.20
2018-10-16T23:06:21.377Z,92.40
2018-10-16T23:10:26.212Z,92.80
2018-10-16T23:14:30.986Z,93.10
2018-10-16T23:18:35.854Z,93.60
2018-10-16T23:22:40.706Z,94.00
2018-10-16T23:26:45.386Z,94.30
2018-10-16T23:30:50.102Z,94.50
2018-10-16T23:34:54.824Z,94.50
2018-10-16T23:39:00.076Z,94.80
2018-10-16T23:43:05.116Z,95.10
2018-10-16T23:47:10.221Z,95.40
2018-10-16T23:51:15.254Z,96.00
2018-10-16T23:55:20.092Z,96.30
2018-10-16T23:59:24.877Z,96.60
